createdAt,value
2023-04-16T00:00:02.694Z,0
2023-04-16T00:05:02.651Z,0
2023-04-16T00:10:02.729Z,0
2023-04-16T00:15:02.590Z,0
2023-04-16T00:20:02.665Z,0
2023-04-16T00:25:02.672Z,0
2023-04-16T00:30:02.754Z,0
2023-04-16T00:35:02.726Z,0
2023-04-16T00:40:02.710Z,0
2023-04-16T00:45:03.208Z,0
2023-04-16T00:50:02.720Z,0
2023-04-16T00:55:02.743Z,0
2023-04-16T01:00:02.624Z,0
2023-04-16T01:05:02.772Z,0
2023-04-16T01:10:02.825Z,0
2023-04-16T01:15:02.695Z,0
2023-04-16T01:20:02.711Z,0
2023-04-16T01:25:02.694Z,0
2023-04-16T01:30:02.752Z,0
2023-04-16T01:35:02.799Z,0
2023-04-16T01:40:02.764Z,0
2023-04-16T01:45:02.739Z,0
2023-04-16T01:50:02.738Z,0
2023-04-16T01:55:02.694Z,0
2023-04-16T02:00:02.715Z,0
2023-04-16T02:05:03.013Z,0
2023-04-16T02:10:02.922Z,0
2023-04-16T02:15:02.825Z,0
2023-04-16T02:20:02.776Z,0
2023-04-16T02:25:02.782Z,0
2023-04-16T02:30:02.824Z,0
2023-04-16T02:35:02.886Z,0
2023-04-16T02:40:02.772Z,0
2023-04-16T02:45:02.872Z,0
2023-04-16T02:50:02.769Z,0
2023-04-16T02:55:02.752Z,0
2023-04-16T03:00:02.771Z,0
2023-04-16T03:05:02.889Z,0
2023-04-16T03:10:02.842Z,0
2023-04-16T03:15:02.821Z,0
2023-04-16T03:20:02.777Z,0
2023-04-16T03:25:02.824Z,0
2023-04-16T03:30:02.920Z,0
2023-04-16T03:35:02.944Z,0
2023-04-16T03:40:02.910Z,0
2023-04-16T03:45:02.817Z,0
2023-04-16T03:50:02.852Z,0
2023-04-16T03:55:02.885Z,0
2023-04-16T04:00:02.844Z,0
2023-04-16T04:05:02.949Z,0
2023-04-16T04:10:02.980Z,0
2023-04-16T04:15:02.891Z,0
2023-04-16T04:20:02.929Z,0
2023-04-16T04:25:02.820Z,0
2023-04-16T04:30:02.855Z,0
2023-04-16T04:35:00.718Z,0.28811640211640216
2023-04-16T04:40:00.621Z,0.3436296296296296
2023-04-16T04:45:00.636Z,0.3987936507936508
2023-04-16T04:50:00.635Z,0.6153227513227513
2023-04-16T04:55:00.709Z,0.5505714285714286
2023-04-16T05:00:00.682Z,0.6220740740740741
2023-04-16T05:05:00.797Z,0.5682328042328042
2023-04-16T05:10:00.783Z,0.8872486772486773
2023-04-16T05:15:00.670Z,1.4068994708994709
2023-04-16T05:20:00.709Z,1.29994708994709
2023-04-16T05:25:00.717Z,1.0077460317460316
2023-04-16T05:30:00.712Z,1.2663809523809524
2023-04-16T05:35:00.781Z,1.9657248677248675
2023-04-16T05:40:00.697Z,2.6981904761904763
2023-04-16T05:45:00.756Z,3.68426455026455
2023-04-16T05:50:00.730Z,4.472740740740741
2023-04-16T05:55:00.799Z,5.244169312169313
2023-04-16T06:00:00.716Z,6.011238095238095
2023-04-16T06:05:00.835Z,6.680624338624338
2023-04-16T06:10:00.844Z,7.230074074074073
2023-04-16T06:15:00.831Z,6.395407407407407
2023-04-16T06:20:00.792Z,4.88357671957672
2023-04-16T06:25:00.722Z,3.9174285714285717
2023-04-16T06:30:00.850Z,3.4515873015873013
2023-04-16T06:35:00.943Z,3.6326031746031746
2023-04-16T06:40:00.748Z,3.644962962962963
2023-04-16T06:45:00.797Z,3.732931216931217
2023-04-16T06:50:00.763Z,4.4671534391534395
2023-04-16T06:55:00.767Z,5.446084656084656
2023-04-16T07:00:00.821Z,6.224074074074075
2023-04-16T07:05:00.897Z,6.574349206349208
2023-04-16T07:10:02.020Z,6.226222222222223
2023-04-16T07:15:00.817Z,7.244423280423281
2023-04-16T07:20:00.819Z,7.374010582010583
2023-04-16T07:25:00.803Z,6.991978835978836
2023-04-16T07:30:00.804Z,7.240116402116402
2023-04-16T07:35:00.844Z,7.380074074074075
2023-04-16T07:40:00.832Z,7.240973544973546
2023-04-16T07:45:00.839Z,6.744603174603175
2023-04-16T07:50:00.774Z,6.771947089947091
2023-04-16T07:55:00.840Z,8.146148148148148
2023-04-16T08:00:00.827Z,9.629079365079365
2023-04-16T08:05:00.957Z,10.913079365079366
2023-04-16T08:10:00.914Z,12.415322751322751
2023-04-16T08:15:00.874Z,12.876275132275133
2023-04-16T08:20:00.863Z,12.234497354497355
2023-04-16T08:25:00.845Z,10.695735449735452
2023-04-16T08:30:00.810Z,9.772359788359788
2023-04-16T08:35:01.096Z,10.244232804232805
2023-04-16T08:40:00.964Z,10.080433862433862
2023-04-16T08:45:01.085Z,9.650095238095238
2023-04-16T08:50:01.050Z,10.13352380952381
2023-04-16T08:55:01.010Z,11.626211640211642
2023-04-16T09:00:01.077Z,12.963544973544975
2023-04-16T09:05:01.098Z,13.582962962962963
2023-04-16T09:10:01.216Z,13.642391534391535
2023-04-16T09:15:00.970Z,13.454624338624338
2023-04-16T09:20:00.910Z,13.467492063492065
2023-04-16T09:25:00.931Z,13.142656084656085
2023-04-16T09:30:00.968Z,12.911407407407408
2023-04-16T09:35:00.985Z,13.111894179894183
2023-04-16T09:40:01.022Z,14.005037037037038
2023-04-16T09:45:03.466Z,15.268592592592592
2023-04-16T09:50:00.923Z,15.891703703703705
2023-04-16T09:55:00.931Z,15.572116402116404
2023-04-16T10:00:00.978Z,15.142857142857144
2023-04-16T10:05:01.016Z,15.334328042328044
2023-04-16T10:10:01.005Z,15.756899470899471
2023-04-16T10:15:00.922Z,15.916021164021165
2023-04-16T10:20:00.984Z,16.08564021164021
2023-04-16T10:25:00.910Z,16.025777777777776
2023-04-16T10:30:00.937Z,15.484328042328041
2023-04-16T10:35:01.054Z,15.019428571428573
2023-04-16T10:40:00.924Z,14.384624338624338
2023-04-16T10:45:00.934Z,14.651174603174605
2023-04-16T10:50:00.987Z,15.040740740740743
2023-04-16T10:55:00.976Z,15.912814814814816
2023-04-16T11:00:01.052Z,17.282666666666664
2023-04-16T11:05:01.203Z,18.753820105820107
2023-04-16T11:10:01.103Z,21.30026455026455
2023-04-16T11:15:01.050Z,24.091798941798945
2023-04-16T11:20:00.951Z,26.70910052910053
2023-04-16T11:25:01.042Z,28.215195767195773
2023-04-16T11:30:00.995Z,28.750497354497355
2023-04-16T11:35:01.051Z,28.094878306878307
2023-04-16T11:40:01.236Z,27.662666666666663
2023-04-16T11:45:01.022Z,30.836582010582013
2023-04-16T11:50:01.157Z,48.97897354497354
2023-04-16T11:55:01.119Z,57.479291005291
2023-04-16T12:00:03.583Z,55.927523809523805
2023-04-16T12:05:01.387Z,48.45994708994709
2023-04-16T12:10:01.267Z,43.2504126984127
2023-04-16T12:15:01.198Z,40.55904761904762
2023-04-16T12:20:01.158Z,46.52950264550265
2023-04-16T12:25:01.181Z,49.017428571428574
2023-04-16T12:30:01.098Z,71.50580952380953
2023-04-16T12:35:01.101Z,87.10678306878307
2023-04-16T12:40:01.056Z,75.1461164021164
2023-04-16T12:45:01.142Z,81.51601058201058
2023-04-16T12:50:01.121Z,90.0975343915344
2023-04-16T12:55:01.113Z,59.849259259259256
2023-04-16T13:00:01.042Z,49.35688888888888
2023-04-16T13:05:01.149Z,50.47538624338625
2023-04-16T13:10:01.364Z,45.59422222222223
2023-04-16T13:15:01.168Z,40.80245502645503
2023-04-16T13:20:01.095Z,40.3455873015873
2023-04-16T13:25:01.111Z,41.46827513227513
2023-04-16T13:30:01.119Z,44.12469841269841
2023-04-16T13:35:01.217Z,46.11920634920635
2023-04-16T13:40:01.103Z,46.615280423280424
2023-04-16T13:45:01.163Z,38.179343915343914
2023-04-16T13:50:01.131Z,38.38293121693121
2023-04-16T13:55:01.122Z,37.1051746031746
2023-04-16T14:00:01.196Z,39.882687830687836
2023-04-16T14:05:01.095Z,38.4753544973545
2023-04-16T14:10:01.200Z,38.73245502645503
2023-04-16T14:15:01.222Z,37.08104761904762
2023-04-16T14:20:01.111Z,34.85863492063493
2023-04-16T14:25:01.507Z,31.500666666666667
2023-04-16T14:30:01.167Z,28.912031746031747
2023-04-16T14:35:01.242Z,26.408232804232807
2023-04-16T14:40:01.127Z,24.329883597883597
2023-04-16T14:45:01.148Z,22.771703703703704
2023-04-16T14:50:01.273Z,21.523492063492064
2023-04-16T14:55:01.159Z,20.36206349206349
2023-04-16T15:00:01.233Z,19.156391534391535
2023-04-16T15:05:01.217Z,18.75383068783069
2023-04-16T15:10:01.299Z,17.30321693121693
2023-04-16T15:15:01.217Z,14.466137566137565
2023-04-16T15:20:01.212Z,12.824063492063493
2023-04-16T15:25:01.247Z,11.747164021164021
2023-04-16T15:30:01.175Z,10.947206349206349
2023-04-16T15:35:01.344Z,10.20268783068783
2023-04-16T15:40:01.325Z,9.646296296296297
2023-04-16T15:45:01.259Z,9.191333333333333
2023-04-16T15:50:01.193Z,8.686444444444446
2023-04-16T15:55:02.954Z,8.232126984126985
2023-04-16T16:05:01.402Z,7.4661269841269835
2023-04-16T16:10:01.524Z,7.218550264550265
2023-04-16T16:15:01.450Z,7.099650793650794
2023-04-16T16:20:01.355Z,6.913195767195768
2023-04-16T16:25:01.316Z,6.707291005291006
2023-04-16T16:30:01.423Z,6.534804232804232
2023-04-16T16:35:01.344Z,6.332560846560847
2023-04-16T16:40:01.230Z,5.996285714285714
2023-04-16T16:45:01.270Z,5.6251851851851855
2023-04-16T16:50:02.860Z,5.163925925925926
2023-04-16T16:55:01.285Z,4.704095238095238
2023-04-16T17:00:01.333Z,4.293248677248677
2023-04-16T17:05:01.375Z,3.8782222222222225
2023-04-16T17:10:03.115Z,3.338063492063492
2023-04-16T17:15:01.396Z,2.805619047619048
2023-04-16T17:20:01.379Z,2.2697037037037036
2023-04-16T17:25:01.307Z,1.7542433862433864
2023-04-16T17:30:01.306Z,1.3229417989417989
2023-04-16T17:35:01.455Z,0.9975238095238096
2023-04-16T17:40:01.305Z,0.692878306878307
2023-04-16T17:45:01.470Z,0.45213756613756617
2023-04-16T17:50:01.812Z,0.3378412698412699
2023-04-16T17:55:01.607Z,0.3515661375661375
2023-04-16T18:00:01.559Z,0.08174603174603175
2023-04-16T18:05:01.399Z,0
2023-04-16T18:10:01.560Z,0
2023-04-16T18:15:01.441Z,0
2023-04-16T18:20:01.394Z,0
2023-04-16T18:25:01.360Z,0
2023-04-16T18:30:01.396Z,0
2023-04-16T18:35:01.442Z,0
2023-04-16T18:40:01.375Z,0
2023-04-16T18:45:01.349Z,0
2023-04-16T18:50:01.358Z,0
2023-04-16T18:55:01.395Z,0
2023-04-16T19:00:01.391Z,0
2023-04-16T19:05:01.610Z,0
2023-04-16T19:10:02.289Z,0
2023-04-16T19:15:01.490Z,0
2023-04-16T19:20:01.607Z,0
2023-04-16T19:25:01.488Z,0
2023-04-16T19:30:01.627Z,0
2023-04-16T19:35:01.789Z,0
2023-04-16T19:40:01.346Z,0
2023-04-16T19:45:01.489Z,0
2023-04-16T19:50:01.391Z,0
2023-04-16T19:55:01.403Z,0
2023-04-16T20:00:01.386Z,0
2023-04-16T20:05:01.455Z,0
2023-04-16T20:10:02.792Z,0
2023-04-16T20:15:01.457Z,0
2023-04-16T20:20:01.593Z,0
2023-04-16T20:25:01.683Z,0
2023-04-16T20:30:02.893Z,0
2023-04-16T20:35:01.652Z,0
2023-04-16T20:40:01.470Z,0
2023-04-16T20:45:01.458Z,0
2023-04-16T20:50:01.519Z,0
2023-04-16T20:55:01.538Z,0
2023-04-16T21:00:01.453Z,0
2023-04-16T21:05:01.578Z,0
2023-04-16T21:10:01.562Z,0
2023-04-16T21:15:01.487Z,0
2023-04-16T21:20:01.425Z,0
2023-04-16T21:25:01.472Z,0
2023-04-16T21:30:01.494Z,0
2023-04-16T21:35:01.566Z,0
2023-04-16T21:40:01.504Z,0
2023-04-16T21:45:01.697Z,0
2023-04-16T21:50:01.652Z,0
2023-04-16T21:55:01.667Z,0
2023-04-16T22:00:01.622Z,0
2023-04-16T22:05:01.701Z,0
2023-04-16T22:10:01.606Z,0
2023-04-16T22:15:03.016Z,0
2023-04-16T22:20:01.550Z,0
2023-04-16T22:25:01.669Z,0
2023-04-16T22:30:01.517Z,0
2023-04-16T22:35:01.582Z,0
2023-04-16T22:40:01.619Z,0
2023-04-16T22:45:01.544Z,0
2023-04-16T22:50:01.860Z,0
2023-04-16T22:55:01.702Z,0
2023-04-16T23:00:01.550Z,0
2023-04-16T23:05:01.578Z,0
2023-04-16T23:10:01.602Z,0
2023-04-16T23:15:01.584Z,0
2023-04-16T23:20:01.601Z,0
2023-04-16T23:25:01.549Z,0
2023-04-16T23:30:01.570Z,0
2023-04-16T23:35:01.806Z,0
2023-04-16T23:40:01.853Z,0
2023-04-16T23:45:01.701Z,0
2023-04-16T23:50:01.873Z,0
2023-04-16T23:55:01.702Z,0
